This is the latest recevied weather packets stored in our database for station/object K2ATL. If no packets are shown the sender has not sent any weather packets the latest 10 day(s).
| Time | Temp. | Humidity | Pressure | Rain* | Wind** | Luminosity | Snow |
|---|---|---|---|---|---|---|---|
| 1777760616 | 13.89° C | 40% | 1098.5 hPa | 0 mm | - | 97 W/m² | - |
| 1777760311 | 13.89° C | 40% | 1098.6 hPa | 0 mm | - | 85 W/m² | - |
| 1777760008 | 13.89° C | 39% | 1098.5 hPa | 0 mm | - | 83 W/m² | - |
| 1777759705 | 13.89° C | 38% | 1098.4 hPa | 0 mm | - | 76 W/m² | - |
| 1777759401 | 13.89° C | 39% | 1098 hPa | 0 mm | - | 92 W/m² | - |
| 1777759097 | 14.44° C | 39% | 1098.1 hPa | 0 mm | - | 63 W/m² | - |
| 1777758795 | 15° C | 37% | 1098.3 hPa | 0 mm | - | 124 W/m² | - |
| 1777758492 | 15° C | 38% | 1097.9 hPa | 0 mm | - | 99 W/m² | - |
| 1777758188 | 15.56° C | 38% | 1098.1 hPa | 0 mm | - | 92 W/m² | - |
| 1777757886 | 15° C | 35% | 1098 hPa | 0 mm | - | 94 W/m² | - |
| 1777757583 | 15° C | 37% | 1097.9 hPa | 0 mm | - | 129 W/m² | - |
| 1777757282 | 15° C | 37% | 1097.8 hPa | 0 mm | - | 72 W/m² | - |
| 1777756980 | 15.56° C | 40% | 1097.7 hPa | 0 mm | - | 78 W/m² | - |
| 1777756675 | 15.56° C | 38% | 1097.7 hPa | 0 mm | - | 71 W/m² | - |
| 1777756372 | 15° C | 36% | 1097.5 hPa | 0 mm | - | 221 W/m² | - |
| 1777756070 | 13.89° C | 38% | 1097.8 hPa | 0 mm | - | 567 W/m² | - |
| 1777755767 | 14.44° C | 38% | 1097.7 hPa | 0 mm | - | 633 W/m² | - |
| 1777755464 | 14.44° C | 36% | 1097.7 hPa | 0 mm | - | 602 W/m² | - |
| 1777755160 | 14.44° C | 37% | 1097.8 hPa | 0 mm | - | 604 W/m² | - |
| 1777754857 | 15° C | 36% | 1097.8 hPa | 0 mm | - | 108 W/m² | - |
| 1777754554 | 13.89° C | 39% | 1097.6 hPa | 0 mm | - | 433 W/m² | - |
| 1777754252 | 15.56° C | 38% | 1097.8 hPa | 0 mm | - | 109 W/m² | - |
| 1777753950 | 14.44° C | 41% | 1097.7 hPa | 0 mm | - | 266 W/m² | - |
| 1777753643 | 15° C | 37% | 1097.6 hPa | 0 mm | - | 706 W/m² | - |
| 1777753342 | 14.44° C | 37% | 1097.6 hPa | 0 mm | - | 734 W/m² | - |
* Rain latest hour (hover to see other rain measurements)
** Current wind speed in m/s (hover to see current wind gust speed)